sensor_id;sensor_type;location;lat;lon;timestamp;P1;durP1;ratioP1;P2;durP2;ratioP2
79452;SDS011;68899;52.116;5.404;2024-01-11T00:01:46;14.00;;;5.28;;
79452;SDS011;68899;52.116;5.404;2024-01-11T00:04:13;14.60;;;5.22;;
79452;SDS011;68899;52.116;5.404;2024-01-11T00:06:43;8.50;;;5.00;;
79452;SDS011;68899;52.116;5.404;2024-01-11T00:09:10;11.13;;;4.82;;
79452;SDS011;68899;52.116;5.404;2024-01-11T00:11:37;10.07;;;5.45;;
79452;SDS011;68899;52.116;5.404;2024-01-11T00:14:04;14.52;;;5.88;;
79452;SDS011;68899;52.116;5.404;2024-01-11T00:16:30;12.63;;;5.30;;
79452;SDS011;68899;52.116;5.404;2024-01-11T00:18:57;16.52;;;6.00;;
79452;SDS011;68899;52.116;5.404;2024-01-11T00:21:24;15.32;;;5.72;;
79452;SDS011;68899;52.116;5.404;2024-01-11T00:23:50;13.57;;;5.80;;
79452;SDS011;68899;52.116;5.404;2024-01-11T00:26:17;12.82;;;5.03;;
79452;SDS011;68899;52.116;5.404;2024-01-11T00:28:43;12.52;;;5.95;;
79452;SDS011;68899;52.116;5.404;2024-01-11T00:31:10;11.52;;;5.13;;
79452;SDS011;68899;52.116;5.404;2024-01-11T00:33:37;13.75;;;6.10;;
79452;SDS011;68899;52.116;5.404;2024-01-11T00:36:04;11.85;;;5.65;;
79452;SDS011;68899;52.116;5.404;2024-01-11T00:38:30;12.43;;;5.60;;
79452;SDS011;68899;52.116;5.404;2024-01-11T00:40:57;12.63;;;5.85;;
79452;SDS011;68899;52.116;5.404;2024-01-11T00:43:23;11.32;;;5.57;;
79452;SDS011;68899;52.116;5.404;2024-01-11T00:45:50;12.23;;;5.78;;
79452;SDS011;68899;52.116;5.404;2024-01-11T00:48:16;13.30;;;6.35;;
79452;SDS011;68899;52.116;5.404;2024-01-11T00:50:43;11.32;;;4.97;;
79452;SDS011;68899;52.116;5.404;2024-01-11T00:53:09;10.73;;;5.32;;
79452;SDS011;68899;52.116;5.404;2024-01-11T00:55:37;14.05;;;5.50;;
79452;SDS011;68899;52.116;5.404;2024-01-11T00:58:03;12.60;;;5.07;;
79452;SDS011;68899;52.116;5.404;2024-01-11T01:00:30;11.00;;;5.18;;
79452;SDS011;68899;52.116;5.404;2024-01-11T01:02:56;15.30;;;4.78;;
79452;SDS011;68899;52.116;5.404;2024-01-11T01:05:23;12.70;;;5.93;;
79452;SDS011;68899;52.116;5.404;2024-01-11T01:07:50;13.27;;;5.40;;
79452;SDS011;68899;52.116;5.404;2024-01-11T01:10:16;10.30;;;5.07;;
79452;SDS011;68899;52.116;5.404;2024-01-11T01:12:42;12.75;;;5.85;;
79452;SDS011;68899;52.116;5.404;2024-01-11T01:15:09;12.73;;;6.13;;
79452;SDS011;68899;52.116;5.404;2024-01-11T01:17:35;13.98;;;4.97;;
79452;SDS011;68899;52.116;5.404;2024-01-11T01:20:03;13.80;;;5.68;;
79452;SDS011;68899;52.116;5.404;2024-01-11T01:22:30;11.68;;;4.80;;
79452;SDS011;68899;52.116;5.404;2024-01-11T01:24:57;12.20;;;4.97;;
79452;SDS011;68899;52.116;5.404;2024-01-11T01:27:23;12.93;;;5.38;;
79452;SDS011;68899;52.116;5.404;2024-01-11T01:29:50;14.75;;;5.55;;
79452;SDS011;68899;52.116;5.404;2024-01-11T01:32:17;12.57;;;6.10;;
79452;SDS011;68899;52.116;5.404;2024-01-11T01:34:43;14.13;;;6.00;;
79452;SDS011;68899;52.116;5.404;2024-01-11T01:37:13;12.27;;;5.75;;
79452;SDS011;68899;52.116;5.404;2024-01-11T01:39:41;13.95;;;5.10;;
79452;SDS011;68899;52.116;5.404;2024-01-11T01:42:08;14.32;;;5.28;;
79452;SDS011;68899;52.116;5.404;2024-01-11T01:44:34;12.90;;;5.95;;
79452;SDS011;68899;52.116;5.404;2024-01-11T01:47:02;11.43;;;5.35;;
79452;SDS011;68899;52.116;5.404;2024-01-11T01:49:30;14.00;;;6.05;;
79452;SDS011;68899;52.116;5.404;2024-01-11T01:51:57;16.05;;;5.47;;
79452;SDS011;68899;52.116;5.404;2024-01-11T01:54:24;12.57;;;5.72;;
79452;SDS011;68899;52.116;5.404;2024-01-11T01:56:51;13.75;;;4.90;;
79452;SDS011;68899;52.116;5.404;2024-01-11T01:59:19;15.07;;;6.40;;
79452;SDS011;68899;52.116;5.404;2024-01-11T02:01:47;12.05;;;5.72;;
79452;SDS011;68899;52.116;5.404;2024-01-11T02:04:14;14.60;;;5.22;;
79452;SDS011;68899;52.116;5.404;2024-01-11T02:06:41;15.00;;;5.90;;
79452;SDS011;68899;52.116;5.404;2024-01-11T02:09:11;13.98;;;5.78;;
79452;SDS011;68899;52.116;5.404;2024-01-11T02:11:40;14.30;;;6.55;;
79452;SDS011;68899;52.116;5.404;2024-01-11T02:14:08;12.48;;;6.00;;
79452;SDS011;68899;52.116;5.404;2024-01-11T02:16:37;14.63;;;6.35;;
79452;SDS011;68899;52.116;5.404;2024-01-11T02:19:06;14.88;;;5.68;;
79452;SDS011;68899;52.116;5.404;2024-01-11T02:21:38;13.45;;;5.57;;
79452;SDS011;68899;52.116;5.404;2024-01-11T02:24:06;19.10;;;6.63;;
79452;SDS011;68899;52.116;5.404;2024-01-11T02:26:33;17.02;;;6.10;;
79452;SDS011;68899;52.116;5.404;2024-01-11T02:29:00;16.08;;;6.60;;
79452;SDS011;68899;52.116;5.404;2024-01-11T02:31:27;13.75;;;6.57;;
79452;SDS011;68899;52.116;5.404;2024-01-11T02:33:54;13.07;;;6.10;;
79452;SDS011;68899;52.116;5.404;2024-01-11T02:36:22;17.75;;;7.13;;
79452;SDS011;68899;52.116;5.404;2024-01-11T02:38:49;15.27;;;6.15;;
79452;SDS011;68899;52.116;5.404;2024-01-11T02:41:18;13.80;;;6.47;;
79452;SDS011;68899;52.116;5.404;2024-01-11T02:43:48;14.85;;;6.22;;
79452;SDS011;68899;52.116;5.404;2024-01-11T02:46:15;12.18;;;6.03;;
79452;SDS011;68899;52.116;5.404;2024-01-11T02:48:43;13.73;;;6.13;;
79452;SDS011;68899;52.116;5.404;2024-01-11T02:51:10;18.42;;;6.97;;
79452;SDS011;68899;52.116;5.404;2024-01-11T02:53:36;14.38;;;6.93;;
79452;SDS011;68899;52.116;5.404;2024-01-11T02:56:03;14.00;;;6.47;;
79452;SDS011;68899;52.116;5.404;2024-01-11T02:58:30;16.60;;;6.68;;
79452;SDS011;68899;52.116;5.404;2024-01-11T03:00:57;17.90;;;7.15;;
79452;SDS011;68899;52.116;5.404;2024-01-11T03:03:23;18.17;;;7.43;;
79452;SDS011;68899;52.116;5.404;2024-01-11T03:05:50;13.55;;;6.45;;
79452;SDS011;68899;52.116;5.404;2024-01-11T03:08:16;20.70;;;7.38;;
79452;SDS011;68899;52.116;5.404;2024-01-11T03:10:43;16.00;;;7.40;;
79452;SDS011;68899;52.116;5.404;2024-01-11T03:13:09;18.45;;;8.05;;
79452;SDS011;68899;52.116;5.404;2024-01-11T03:15:39;17.15;;;7.55;;
79452;SDS011;68899;52.116;5.404;2024-01-11T03:18:05;19.48;;;7.72;;
79452;SDS011;68899;52.116;5.404;2024-01-11T03:20:32;15.27;;;7.78;;
79452;SDS011;68899;52.116;5.404;2024-01-11T03:22:59;17.55;;;8.07;;
79452;SDS011;68899;52.116;5.404;2024-01-11T03:25:25;16.73;;;7.65;;
79452;SDS011;68899;52.116;5.404;2024-01-11T03:27:52;16.80;;;7.78;;
79452;SDS011;68899;52.116;5.404;2024-01-11T03:30:18;17.42;;;7.47;;
79452;SDS011;68899;52.116;5.404;2024-01-11T03:32:45;22.25;;;8.15;;
79452;SDS011;68899;52.116;5.404;2024-01-11T03:35:12;16.25;;;7.40;;
79452;SDS011;68899;52.116;5.404;2024-01-11T03:37:39;20.05;;;7.55;;
79452;SDS011;68899;52.116;5.404;2024-01-11T03:40:06;17.60;;;7.57;;
79452;SDS011;68899;52.116;5.404;2024-01-11T03:42:35;19.90;;;8.45;;
79452;SDS011;68899;52.116;5.404;2024-01-11T03:45:01;19.33;;;8.18;;
79452;SDS011;68899;52.116;5.404;2024-01-11T03:47:29;20.02;;;9.07;;
79452;SDS011;68899;52.116;5.404;2024-01-11T03:49:56;18.30;;;7.30;;
79452;SDS011;68899;52.116;5.404;2024-01-11T03:52:23;19.95;;;8.82;;
79452;SDS011;68899;52.116;5.404;2024-01-11T03:54:49;24.48;;;8.90;;
79452;SDS011;68899;52.116;5.404;2024-01-11T03:57:16;19.38;;;8.93;;
79452;SDS011;68899;52.116;5.404;2024-01-11T03:59:43;21.10;;;10.15;;
79452;SDS011;68899;52.116;5.404;2024-01-11T04:02:11;23.35;;;10.18;;
79452;SDS011;68899;52.116;5.404;2024-01-11T04:04:37;25.85;;;10.52;;
79452;SDS011;68899;52.116;5.404;2024-01-11T04:07:04;22.40;;;10.30;;
79452;SDS011;68899;52.116;5.404;2024-01-11T04:09:30;21.02;;;9.75;;
79452;SDS011;68899;52.116;5.404;2024-01-11T04:11:57;23.30;;;10.02;;
79452;SDS011;68899;52.116;5.404;2024-01-11T04:14:24;22.48;;;9.80;;
79452;SDS011;68899;52.116;5.404;2024-01-11T04:16:50;26.88;;;10.02;;
79452;SDS011;68899;52.116;5.404;2024-01-11T04:19:17;28.13;;;10.35;;
79452;SDS011;68899;52.116;5.404;2024-01-11T04:21:48;23.27;;;11.00;;
79452;SDS011;68899;52.116;5.404;2024-01-11T04:24:15;20.73;;;9.77;;
79452;SDS011;68899;52.116;5.404;2024-01-11T04:26:41;25.35;;;10.45;;
79452;SDS011;68899;52.116;5.404;2024-01-11T04:29:08;24.48;;;10.02;;
79452;SDS011;68899;52.116;5.404;2024-01-11T04:31:34;27.60;;;10.77;;
79452;SDS011;68899;52.116;5.404;2024-01-11T04:34:01;25.48;;;9.95;;
79452;SDS011;68899;52.116;5.404;2024-01-11T04:36:27;25.92;;;10.68;;
79452;SDS011;68899;52.116;5.404;2024-01-11T04:38:54;25.63;;;10.60;;
79452;SDS011;68899;52.116;5.404;2024-01-11T04:41:20;26.52;;;10.45;;
79452;SDS011;68899;52.116;5.404;2024-01-11T04:43:47;24.40;;;10.80;;
79452;SDS011;68899;52.116;5.404;2024-01-11T04:46:17;25.92;;;10.77;;
79452;SDS011;68899;52.116;5.404;2024-01-11T04:48:45;28.08;;;10.63;;
79452;SDS011;68899;52.116;5.404;2024-01-11T04:51:13;28.17;;;12.10;;
79452;SDS011;68899;52.116;5.404;2024-01-11T04:53:42;28.23;;;11.60;;
79452;SDS011;68899;52.116;5.404;2024-01-11T04:56:10;29.42;;;10.90;;
79452;SDS011;68899;52.116;5.404;2024-01-11T04:58:39;27.33;;;11.88;;
79452;SDS011;68899;52.116;5.404;2024-01-11T05:01:07;27.25;;;11.02;;
79452;SDS011;68899;52.116;5.404;2024-01-11T05:03:38;29.38;;;11.88;;
79452;SDS011;68899;52.116;5.404;2024-01-11T05:06:05;30.08;;;11.05;;
79452;SDS011;68899;52.116;5.404;2024-01-11T05:08:31;27.50;;;10.68;;
79452;SDS011;68899;52.116;5.404;2024-01-11T05:10:58;23.35;;;11.00;;
79452;SDS011;68899;52.116;5.404;2024-01-11T05:13:24;23.23;;;10.70;;
79452;SDS011;68899;52.116;5.404;2024-01-11T05:15:52;26.48;;;12.93;;
79452;SDS011;68899;52.116;5.404;2024-01-11T05:18:18;24.15;;;10.50;;
79452;SDS011;68899;52.116;5.404;2024-01-11T05:20:45;24.13;;;11.23;;
79452;SDS011;68899;52.116;5.404;2024-01-11T05:23:11;28.48;;;11.82;;
79452;SDS011;68899;52.116;5.404;2024-01-11T05:25:38;28.98;;;11.80;;
79452;SDS011;68899;52.116;5.404;2024-01-11T05:28:04;23.88;;;10.48;;
79452;SDS011;68899;52.116;5.404;2024-01-11T05:30:31;27.10;;;12.18;;
79452;SDS011;68899;52.116;5.404;2024-01-11T05:32:57;30.63;;;12.10;;
79452;SDS011;68899;52.116;5.404;2024-01-11T05:35:24;28.42;;;12.90;;
79452;SDS011;68899;52.116;5.404;2024-01-11T05:37:53;26.85;;;11.30;;
79452;SDS011;68899;52.116;5.404;2024-01-11T05:40:21;26.50;;;10.73;;
79452;SDS011;68899;52.116;5.404;2024-01-11T05:42:47;26.00;;;11.65;;
79452;SDS011;68899;52.116;5.404;2024-01-11T05:45:14;29.75;;;12.32;;
79452;SDS011;68899;52.116;5.404;2024-01-11T05:47:47;24.25;;;11.07;;
79452;SDS011;68899;52.116;5.404;2024-01-11T05:50:14;31.23;;;12.07;;
79452;SDS011;68899;52.116;5.404;2024-01-11T05:52:41;26.55;;;11.82;;
79452;SDS011;68899;52.116;5.404;2024-01-11T05:55:08;25.40;;;11.43;;
79452;SDS011;68899;52.116;5.404;2024-01-11T05:57:35;28.70;;;12.60;;
79452;SDS011;68899;52.116;5.404;2024-01-11T06:00:01;27.10;;;12.65;;
79452;SDS011;68899;52.116;5.404;2024-01-11T06:02:28;31.50;;;13.23;;
79452;SDS011;68899;52.116;5.404;2024-01-11T06:04:55;29.05;;;12.02;;
79452;SDS011;68899;52.116;5.404;2024-01-11T06:07:22;27.15;;;12.32;;
79452;SDS011;68899;52.116;5.404;2024-01-11T06:09:48;25.67;;;12.43;;
79452;SDS011;68899;52.116;5.404;2024-01-11T06:12:15;30.92;;;12.02;;
79452;SDS011;68899;52.116;5.404;2024-01-11T06:14:41;25.58;;;12.32;;
79452;SDS011;68899;52.116;5.404;2024-01-11T06:17:08;27.95;;;12.77;;
79452;SDS011;68899;52.116;5.404;2024-01-11T06:19:37;31.92;;;14.05;;
79452;SDS011;68899;52.116;5.404;2024-01-11T06:22:07;27.70;;;12.00;;
79452;SDS011;68899;52.116;5.404;2024-01-11T06:24:33;29.15;;;12.55;;
79452;SDS011;68899;52.116;5.404;2024-01-11T06:27:00;30.42;;;12.68;;
79452;SDS011;68899;52.116;5.404;2024-01-11T06:29:26;28.13;;;11.90;;
79452;SDS011;68899;52.116;5.404;2024-01-11T06:31:53;27.02;;;11.50;;
79452;SDS011;68899;52.116;5.404;2024-01-11T06:34:20;30.33;;;13.48;;
79452;SDS011;68899;52.116;5.404;2024-01-11T06:36:46;28.33;;;13.13;;
79452;SDS011;68899;52.116;5.404;2024-01-11T06:39:14;28.90;;;11.70;;
79452;SDS011;68899;52.116;5.404;2024-01-11T06:41:41;31.80;;;12.60;;
79452;SDS011;68899;52.116;5.404;2024-01-11T06:44:08;29.58;;;12.45;;
79452;SDS011;68899;52.116;5.404;2024-01-11T06:46:35;28.27;;;12.85;;
79452;SDS011;68899;52.116;5.404;2024-01-11T06:49:02;28.13;;;12.43;;
79452;SDS011;68899;52.116;5.404;2024-01-11T06:51:29;24.35;;;11.35;;
79452;SDS011;68899;52.116;5.404;2024-01-11T06:53:56;28.52;;;12.82;;
79452;SDS011;68899;52.116;5.404;2024-01-11T06:56:23;30.52;;;11.90;;
79452;SDS011;68899;52.116;5.404;2024-01-11T06:58:49;30.83;;;12.85;;
79452;SDS011;68899;52.116;5.404;2024-01-11T07:01:16;26.05;;;11.73;;
79452;SDS011;68899;52.116;5.404;2024-01-11T07:03:43;28.48;;;11.13;;
79452;SDS011;68899;52.116;5.404;2024-01-11T07:06:09;27.70;;;12.55;;
79452;SDS011;68899;52.116;5.404;2024-01-11T07:08:36;30.02;;;12.45;;
79452;SDS011;68899;52.116;5.404;2024-01-11T07:11:03;34.78;;;13.13;;
79452;SDS011;68899;52.116;5.404;2024-01-11T07:13:30;29.27;;;11.27;;
79452;SDS011;68899;52.116;5.404;2024-01-11T07:15:57;27.42;;;12.25;;
79452;SDS011;68899;52.116;5.404;2024-01-11T07:18:24;27.48;;;13.57;;
79452;SDS011;68899;52.116;5.404;2024-01-11T07:20:52;28.25;;;12.95;;
79452;SDS011;68899;52.116;5.404;2024-01-11T07:23:19;30.10;;;13.27;;
79452;SDS011;68899;52.116;5.404;2024-01-11T07:25:45;26.58;;;13.18;;
79452;SDS011;68899;52.116;5.404;2024-01-11T07:28:12;30.75;;;13.70;;
79452;SDS011;68899;52.116;5.404;2024-01-11T07:30:38;33.28;;;12.60;;
79452;SDS011;68899;52.116;5.404;2024-01-11T07:33:06;27.02;;;12.85;;
79452;SDS011;68899;52.116;5.404;2024-01-11T07:35:34;27.50;;;12.32;;
79452;SDS011;68899;52.116;5.404;2024-01-11T07:38:01;27.92;;;12.75;;
79452;SDS011;68899;52.116;5.404;2024-01-11T07:40:28;27.65;;;13.43;;
79452;SDS011;68899;52.116;5.404;2024-01-11T07:42:57;30.70;;;13.18;;
79452;SDS011;68899;52.116;5.404;2024-01-11T07:45:24;25.60;;;12.35;;
79452;SDS011;68899;52.116;5.404;2024-01-11T07:47:50;31.67;;;12.23;;
79452;SDS011;68899;52.116;5.404;2024-01-11T07:50:17;28.23;;;12.25;;
79452;SDS011;68899;52.116;5.404;2024-01-11T07:52:44;28.73;;;12.85;;
79452;SDS011;68899;52.116;5.404;2024-01-11T07:55:12;28.27;;;12.18;;
79452;SDS011;68899;52.116;5.404;2024-01-11T07:57:39;28.30;;;14.07;;
79452;SDS011;68899;52.116;5.404;2024-01-11T08:00:06;28.58;;;12.65;;
79452;SDS011;68899;52.116;5.404;2024-01-11T08:02:35;30.80;;;13.07;;
79452;SDS011;68899;52.116;5.404;2024-01-11T08:05:01;25.63;;;11.73;;
79452;SDS011;68899;52.116;5.404;2024-01-11T08:07:28;25.30;;;10.68;;
79452;SDS011;68899;52.116;5.404;2024-01-11T08:09:55;28.95;;;11.73;;
79452;SDS011;68899;52.116;5.404;2024-01-11T08:12:22;30.40;;;13.57;;
79452;SDS011;68899;52.116;5.404;2024-01-11T08:14:49;29.80;;;13.13;;
79452;SDS011;68899;52.116;5.404;2024-01-11T08:17:18;27.25;;;13.13;;
79452;SDS011;68899;52.116;5.404;2024-01-11T08:19:45;28.88;;;12.82;;
79452;SDS011;68899;52.116;5.404;2024-01-11T08:22:12;25.70;;;11.65;;
79452;SDS011;68899;52.116;5.404;2024-01-11T08:24:38;27.75;;;13.05;;
79452;SDS011;68899;52.116;5.404;2024-01-11T08:27:05;23.75;;;10.85;;
79452;SDS011;68899;52.116;5.404;2024-01-11T08:29:32;28.05;;;11.35;;
79452;SDS011;68899;52.116;5.404;2024-01-11T08:31:59;27.42;;;11.90;;
79452;SDS011;68899;52.116;5.404;2024-01-11T08:34:49;27.58;;;11.48;;
79452;SDS011;68899;52.116;5.404;2024-01-11T08:37:16;28.60;;;11.25;;
79452;SDS011;68899;52.116;5.404;2024-01-11T08:39:42;32.80;;;13.15;;
79452;SDS011;68899;52.116;5.404;2024-01-11T08:42:09;27.98;;;12.10;;
79452;SDS011;68899;52.116;5.404;2024-01-11T08:44:35;36.47;;;13.55;;
79452;SDS011;68899;52.116;5.404;2024-01-11T08:47:02;33.33;;;13.68;;
79452;SDS011;68899;52.116;5.404;2024-01-11T08:49:30;34.67;;;12.65;;
79452;SDS011;68899;52.116;5.404;2024-01-11T08:51:56;33.22;;;14.15;;
79452;SDS011;68899;52.116;5.404;2024-01-11T08:54:23;31.90;;;12.90;;
79452;SDS011;68899;52.116;5.404;2024-01-11T08:56:49;31.70;;;11.93;;
79452;SDS011;68899;52.116;5.404;2024-01-11T08:59:16;30.73;;;13.20;;
79452;SDS011;68899;52.116;5.404;2024-01-11T09:01:43;30.80;;;13.02;;
79452;SDS011;68899;52.116;5.404;2024-01-11T09:04:22;32.38;;;12.82;;
79452;SDS011;68899;52.116;5.404;2024-01-11T09:06:49;32.60;;;12.40;;
79452;SDS011;68899;52.116;5.404;2024-01-11T09:09:15;33.40;;;14.82;;
79452;SDS011;68899;52.116;5.404;2024-01-11T09:11:43;29.40;;;13.50;;
79452;SDS011;68899;52.116;5.404;2024-01-11T09:14:09;30.13;;;12.45;;
79452;SDS011;68899;52.116;5.404;2024-01-11T09:16:37;30.35;;;11.95;;
79452;SDS011;68899;52.116;5.404;2024-01-11T09:19:06;31.05;;;12.32;;
79452;SDS011;68899;52.116;5.404;2024-01-11T09:21:32;31.63;;;12.43;;
79452;SDS011;68899;52.116;5.404;2024-01-11T09:23:59;31.13;;;12.43;;
79452;SDS011;68899;52.116;5.404;2024-01-11T09:26:25;31.80;;;12.80;;
79452;SDS011;68899;52.116;5.404;2024-01-11T09:28:52;29.35;;;12.13;;
79452;SDS011;68899;52.116;5.404;2024-01-11T09:31:18;29.60;;;12.35;;
79452;SDS011;68899;52.116;5.404;2024-01-11T09:33:45;31.95;;;12.35;;
79452;SDS011;68899;52.116;5.404;2024-01-11T09:36:12;29.40;;;12.05;;
79452;SDS011;68899;52.116;5.404;2024-01-11T09:38:39;27.55;;;10.75;;
79452;SDS011;68899;52.116;5.404;2024-01-11T09:41:07;29.98;;;10.95;;
79452;SDS011;68899;52.116;5.404;2024-01-11T09:43:38;27.88;;;10.65;;
79452;SDS011;68899;52.116;5.404;2024-01-11T09:46:09;25.20;;;10.68;;
79452;SDS011;68899;52.116;5.404;2024-01-11T09:48:38;26.92;;;10.48;;
79452;SDS011;68899;52.116;5.404;2024-01-11T09:51:10;26.25;;;10.05;;
79452;SDS011;68899;52.116;5.404;2024-01-11T09:53:40;29.63;;;10.68;;
79452;SDS011;68899;52.116;5.404;2024-01-11T09:56:07;29.48;;;10.60;;
79452;SDS011;68899;52.116;5.404;2024-01-11T09:58:35;25.70;;;11.45;;
79452;SDS011;68899;52.116;5.404;2024-01-11T10:01:07;32.53;;;11.07;;
79452;SDS011;68899;52.116;5.404;2024-01-11T10:03:39;28.05;;;9.88;;
79452;SDS011;68899;52.116;5.404;2024-01-11T10:06:07;29.45;;;10.30;;
79452;SDS011;68899;52.116;5.404;2024-01-11T10:08:35;28.42;;;10.38;;
79452;SDS011;68899;52.116;5.404;2024-01-11T10:11:02;25.38;;;9.48;;
79452;SDS011;68899;52.116;5.404;2024-01-11T10:13:30;25.27;;;10.02;;
79452;SDS011;68899;52.116;5.404;2024-01-11T10:16:08;29.35;;;10.45;;
79452;SDS011;68899;52.116;5.404;2024-01-11T10:18:36;26.15;;;9.15;;
79452;SDS011;68899;52.116;5.404;2024-01-11T10:21:03;28.83;;;11.38;;
79452;SDS011;68899;52.116;5.404;2024-01-11T10:23:32;25.38;;;10.48;;
79452;SDS011;68899;52.116;5.404;2024-01-11T10:25:59;32.72;;;11.02;;
79452;SDS011;68899;52.116;5.404;2024-01-11T10:28:26;29.75;;;11.50;;
79452;SDS011;68899;52.116;5.404;2024-01-11T10:30:54;23.25;;;10.13;;
79452;SDS011;68899;52.116;5.404;2024-01-11T10:33:22;26.35;;;10.63;;
79452;SDS011;68899;52.116;5.404;2024-01-11T10:35:49;25.60;;;9.23;;
79452;SDS011;68899;52.116;5.404;2024-01-11T10:38:18;28.88;;;10.10;;
79452;SDS011;68899;52.116;5.404;2024-01-11T10:40:47;29.20;;;10.50;;
79452;SDS011;68899;52.116;5.404;2024-01-11T10:43:14;26.98;;;9.65;;
79452;SDS011;68899;52.116;5.404;2024-01-11T10:45:51;27.73;;;9.52;;
79452;SDS011;68899;52.116;5.404;2024-01-11T10:48:23;29.50;;;10.13;;
79452;SDS011;68899;52.116;5.404;2024-01-11T10:50:57;25.98;;;9.68;;
79452;SDS011;68899;52.116;5.404;2024-01-11T10:56:03;28.75;;;10.55;;
79452;SDS011;68899;52.116;5.404;2024-01-11T10:58:33;25.65;;;10.40;;
79452;SDS011;68899;52.116;5.404;2024-01-11T11:01:02;28.73;;;10.40;;
79452;SDS011;68899;52.116;5.404;2024-01-11T11:03:30;22.15;;;9.02;;
79452;SDS011;68899;52.116;5.404;2024-01-11T11:06:00;29.23;;;9.60;;
79452;SDS011;68899;52.116;5.404;2024-01-11T11:08:27;25.77;;;9.40;;
79452;SDS011;68899;52.116;5.404;2024-01-11T11:10:57;29.70;;;10.00;;
79452;SDS011;68899;52.116;5.404;2024-01-11T11:13:26;28.02;;;9.02;;
79452;SDS011;68899;52.116;5.404;2024-01-11T11:15:53;28.58;;;9.45;;
79452;SDS011;68899;52.116;5.404;2024-01-11T11:18:20;28.10;;;10.50;;
79452;SDS011;68899;52.116;5.404;2024-01-11T11:20:47;22.40;;;9.07;;
79452;SDS011;68899;52.116;5.404;2024-01-11T11:23:15;31.63;;;9.55;;
79452;SDS011;68899;52.116;5.404;2024-01-11T11:25:46;29.20;;;9.65;;
79452;SDS011;68899;52.116;5.404;2024-01-11T11:28:14;26.40;;;10.10;;
79452;SDS011;68899;52.116;5.404;2024-01-11T11:30:43;26.45;;;10.20;;
79452;SDS011;68899;52.116;5.404;2024-01-11T11:33:15;22.10;;;7.63;;
79452;SDS011;68899;52.116;5.404;2024-01-11T11:35:43;28.35;;;10.90;;
79452;SDS011;68899;52.116;5.404;2024-01-11T11:38:18;22.40;;;8.70;;
79452;SDS011;68899;52.116;5.404;2024-01-11T11:40:47;25.90;;;9.73;;
79452;SDS011;68899;52.116;5.404;2024-01-11T11:43:15;25.23;;;9.27;;
79452;SDS011;68899;52.116;5.404;2024-01-11T11:45:44;25.33;;;9.98;;
79452;SDS011;68899;52.116;5.404;2024-01-11T11:51:11;22.08;;;9.75;;
79452;SDS011;68899;52.116;5.404;2024-01-11T11:56:10;19.67;;;7.53;;
79452;SDS011;68899;52.116;5.404;2024-01-11T11:58:37;22.60;;;8.85;;
79452;SDS011;68899;52.116;5.404;2024-01-11T12:01:05;20.45;;;8.52;;
79452;SDS011;68899;52.116;5.404;2024-01-11T12:03:32;19.17;;;8.05;;
79452;SDS011;68899;52.116;5.404;2024-01-11T12:06:04;22.65;;;8.27;;
79452;SDS011;68899;52.116;5.404;2024-01-11T12:08:32;22.35;;;8.05;;
79452;SDS011;68899;52.116;5.404;2024-01-11T12:10:59;24.92;;;10.25;;
79452;SDS011;68899;52.116;5.404;2024-01-11T12:13:26;25.02;;;8.75;;
79452;SDS011;68899;52.116;5.404;2024-01-11T12:15:52;22.92;;;9.43;;
79452;SDS011;68899;52.116;5.404;2024-01-11T12:18:19;18.83;;;8.70;;
79452;SDS011;68899;52.116;5.404;2024-01-11T12:20:46;23.63;;;9.20;;
79452;SDS011;68899;52.116;5.404;2024-01-11T12:23:13;24.27;;;8.93;;
79452;SDS011;68899;52.116;5.404;2024-01-11T12:25:42;19.20;;;8.13;;
79452;SDS011;68899;52.116;5.404;2024-01-11T12:28:10;22.90;;;8.15;;
79452;SDS011;68899;52.116;5.404;2024-01-11T12:30:37;20.90;;;7.32;;
79452;SDS011;68899;52.116;5.404;2024-01-11T12:33:04;29.48;;;8.65;;
79452;SDS011;68899;52.116;5.404;2024-01-11T12:35:32;22.90;;;8.07;;
79452;SDS011;68899;52.116;5.404;2024-01-11T12:37:59;20.77;;;7.80;;
79452;SDS011;68899;52.116;5.404;2024-01-11T12:40:27;18.55;;;7.25;;
79452;SDS011;68899;52.116;5.404;2024-01-11T12:42:54;20.00;;;8.10;;
79452;SDS011;68899;52.116;5.404;2024-01-11T12:45:26;22.65;;;8.60;;
79452;SDS011;68899;52.116;5.404;2024-01-11T12:47:55;21.17;;;8.35;;
79452;SDS011;68899;52.116;5.404;2024-01-11T12:50:23;20.88;;;8.52;;
79452;SDS011;68899;52.116;5.404;2024-01-11T12:53:14;21.88;;;8.75;;
79452;SDS011;68899;52.116;5.404;2024-01-11T12:55:47;21.90;;;9.13;;
79452;SDS011;68899;52.116;5.404;2024-01-11T12:58:23;22.35;;;8.05;;
79452;SDS011;68899;52.116;5.404;2024-01-11T13:00:53;21.60;;;8.98;;
79452;SDS011;68899;52.116;5.404;2024-01-11T13:03:20;24.55;;;8.65;;
79452;SDS011;68899;52.116;5.404;2024-01-11T13:05:47;20.67;;;7.95;;
79452;SDS011;68899;52.116;5.404;2024-01-11T13:08:15;21.20;;;8.07;;
79452;SDS011;68899;52.116;5.404;2024-01-11T13:10:44;22.20;;;8.43;;
79452;SDS011;68899;52.116;5.404;2024-01-11T13:13:13;19.75;;;9.10;;
79452;SDS011;68899;52.116;5.404;2024-01-11T13:15:40;21.13;;;8.20;;
79452;SDS011;68899;52.116;5.404;2024-01-11T13:18:07;21.92;;;7.63;;
79452;SDS011;68899;52.116;5.404;2024-01-11T13:20:33;21.38;;;8.40;;
79452;SDS011;68899;52.116;5.404;2024-01-11T13:23:16;19.45;;;7.35;;
79452;SDS011;68899;52.116;5.404;2024-01-11T13:25:47;22.77;;;9.43;;
79452;SDS011;68899;52.116;5.404;2024-01-11T13:28:18;18.30;;;7.43;;
79452;SDS011;68899;52.116;5.404;2024-01-11T13:30:45;21.33;;;8.25;;
79452;SDS011;68899;52.116;5.404;2024-01-11T13:33:12;21.63;;;9.13;;
79452;SDS011;68899;52.116;5.404;2024-01-11T13:35:40;20.45;;;7.80;;
79452;SDS011;68899;52.116;5.404;2024-01-11T13:38:09;18.35;;;7.47;;
79452;SDS011;68899;52.116;5.404;2024-01-11T13:40:36;18.88;;;8.05;;
79452;SDS011;68899;52.116;5.404;2024-01-11T13:43:04;19.63;;;7.97;;
79452;SDS011;68899;52.116;5.404;2024-01-11T13:45:30;22.52;;;8.25;;
79452;SDS011;68899;52.116;5.404;2024-01-11T13:47:58;21.25;;;8.05;;
79452;SDS011;68899;52.116;5.404;2024-01-11T13:50:25;20.10;;;8.10;;
79452;SDS011;68899;52.116;5.404;2024-01-11T13:52:52;21.70;;;9.00;;
79452;SDS011;68899;52.116;5.404;2024-01-11T13:55:19;18.02;;;6.95;;
79452;SDS011;68899;52.116;5.404;2024-01-11T13:57:49;19.15;;;7.43;;
79452;SDS011;68899;52.116;5.404;2024-01-11T14:00:17;17.17;;;6.85;;
79452;SDS011;68899;52.116;5.404;2024-01-11T14:02:45;20.23;;;8.65;;
79452;SDS011;68899;52.116;5.404;2024-01-11T14:05:15;19.95;;;8.13;;
79452;SDS011;68899;52.116;5.404;2024-01-11T14:07:45;20.10;;;7.25;;
79452;SDS011;68899;52.116;5.404;2024-01-11T14:10:12;18.00;;;7.43;;
79452;SDS011;68899;52.116;5.404;2024-01-11T14:12:41;18.90;;;8.02;;
79452;SDS011;68899;52.116;5.404;2024-01-11T14:15:08;20.42;;;7.47;;
79452;SDS011;68899;52.116;5.404;2024-01-11T14:17:39;15.52;;;6.65;;
79452;SDS011;68899;52.116;5.404;2024-01-11T14:20:07;18.13;;;7.32;;
79452;SDS011;68899;52.116;5.404;2024-01-11T14:22:40;16.85;;;7.13;;
79452;SDS011;68899;52.116;5.404;2024-01-11T14:25:08;19.33;;;7.43;;
79452;SDS011;68899;52.116;5.404;2024-01-11T14:27:37;15.70;;;7.47;;
79452;SDS011;68899;52.116;5.404;2024-01-11T14:30:05;18.33;;;7.53;;
79452;SDS011;68899;52.116;5.404;2024-01-11T14:32:32;18.45;;;7.85;;
79452;SDS011;68899;52.116;5.404;2024-01-11T14:35:03;19.92;;;7.68;;
79452;SDS011;68899;52.116;5.404;2024-01-11T14:37:31;15.80;;;6.57;;
79452;SDS011;68899;52.116;5.404;2024-01-11T14:39:59;16.85;;;6.35;;